K K — WDE8363 — position and weather

sailwx.info

Track history (hours):
 
Tides and Currents Weather Stations Pressure Air Temp Water Temp Dewpoint Dewpoint Depression Visibility Wind Speed Wind Dir Waves Ship Positions

K K

Owner: Lafayette Workboat Rentals LLC., Broussard, LA. More information available from US FCC via Universal Licensing System and Coast Guard Vessel Documentation Center.

Last reported at 2018-Feb-25 03:16 UTC. Time now 2018-Feb-25 15:21 UTC.
Position N 29°29' W 094°51'.

Length 16 m; draft 6 m.

Type: Ship (hazmat cat D). MMSI: 367404620.

Date/timePositionNaut miles runAvg speedWind from/ knotsBaromVisibWave heightAir tempDewpointWater temp
2018-Feb-25 03:16N 29°29' W 094°51'2 7.0
2018-Feb-25 03:00N 29°30' W 094°52'3 6.8
2018-Feb-25 02:30N 29°33' W 094°55'3 7.1
2018-Feb-25 02:00N 29°36' W 094°57'4 7.3
2018-Feb-25 01:30N 29°39' W 094°58'3 6.2
2018-Feb-25 01:00N 29°42' W 095°00'3 5.9
2018-Feb-25 00:30N 29°44' W 095°03'3 5.4
2018-Feb-25 00:00N 29°45' W 095°05'3 6.5
2018-Feb-24 23:28N 29°44' W 095°09'4 5.6
2018-Feb-24 22:49N 29°44' W 095°13'11 1.2
2018-Feb-24 14:03N 29°43' W 095°01'0 6.9
2018-Feb-24 14:00N 29°43' W 095°01'3 6.3
2018-Feb-24 13:30N 29°40' W 094°59'4 7.1
2018-Feb-24 13:00N 29°37' W 094°57'4 7.4
2018-Feb-24 12:30N 29°34' W 094°55'4 7.0
2018-Feb-24 12:00N 29°31' W 094°53'  
2018-Feb-20 14:17N 29°44' W 095°02'2 6.7
2018-Feb-20 14:00N 29°42' W 095°01'1 2.7
2018-Feb-20 13:30N 29°41' W 095°00'0 0.1
2018-Feb-20 12:59N 29°41' W 095°00'0 0.0
2018-Feb-20 11:40N 29°41' W 095°00'0 1.0
2018-Feb-20 11:28N 29°41' W 095°00'3 3.6
2018-Feb-20 10:40N 29°39' W 094°58'3 7.4
2018-Feb-20 10:18N 29°36' W 094°57'2 7.4
2018-Feb-20 10:00N 29°34' W 094°56'4 6.9
2018-Feb-20 09:29N 29°31' W 094°53'6 6.8
2018-Feb-20 08:33N 29°26' W 094°50'1 6.9
2018-Feb-20 08:24N 29°25' W 094°49'4 6.6
2018-Feb-20 07:51N 29°21' W 094°49'3 6.8
2018-Feb-20 07:29N 29°20' W 094°51'4 7.0
2018-Feb-20 06:59N 29°17' W 094°54'4 6.8
2018-Feb-20 06:21N 29°17' W 094°59'13 1.3
2018-Feb-19 20:25N 29°08' W 095°10'2 5.6
2018-Feb-19 20:00N 29°10' W 095°08'10 5.2
2018-Feb-19 18:08N 29°16' W 094°59'1 4.9
2018-Feb-19 17:55N 29°17' W 094°58'4 4.9
2018-Feb-19 17:08N 29°17' W 094°54'1 5.0
2018-Feb-19 16:58N 29°18' W 094°53'2 5.2
2018-Feb-19 16:30N 29°19' W 094°51'3 5.1
2018-Feb-19 16:00N 29°21' W 094°49'10 5.4
2018-Feb-19 14:14N 29°30' W 094°52'1 5.8
2018-Feb-19 14:00N 29°31' W 094°53'3 6.1
2018-Feb-19 13:30N 29°34' W 094°55'3 6.3
2018-Feb-19 13:00N 29°36' W 094°57'3 6.1
2018-Feb-19 12:30N 29°39' W 094°58'3 6.0
2018-Feb-19 12:00N 29°42' W 095°00'3 5.2
2018-Feb-19 11:30N 29°44' W 095°02'3 5.6
2018-Feb-19 10:55N 29°46' W 095°05'3 6.3
2018-Feb-19 10:30N 29°44' W 095°08'1 1.1
2018-Feb-19 09:59N 29°44' W 095°08'0 0.0
2018-Feb-19 09:28N 29°44' W 095°08'0 0.0
2018-Feb-19 08:58N 29°44' W 095°08'0 0.0
2018-Feb-19 08:30N 29°44' W 095°08'0 0.0
2018-Feb-19 08:00N 29°44' W 095°08'0 0.0
2018-Feb-19 07:30N 29°44' W 095°08'0 0.0
2018-Feb-19 07:00N 29°44' W 095°08'0 0.0
2018-Feb-19 06:29N 29°44' W 095°08'0 0.0
2018-Feb-19 05:59N 29°44' W 095°08'0 0.0
2018-Feb-19 05:30N 29°44' W 095°08'0 0.0
2018-Feb-19 05:00N 29°44' W 095°08'1 0.0
2018-Feb-18 00:31N 29°45' W 095°10'1 6.3
2018-Feb-18 00:23N 29°44' W 095°09'4 5.6
2018-Feb-17 23:37N 29°45' W 095°04'1 6.9
2018-Feb-17 23:29N 29°44' W 095°03'2 5.1
2018-Feb-17 23:00N 29°43' W 095°01'3 5.7
2018-Feb-17 22:30N 29°41' W 094°59'3 6.7
2018-Feb-17 22:00N 29°38' W 094°58'3 6.8
2018-Feb-17 21:30N 29°35' W 094°56'3 6.9
2018-Feb-17 21:00N 29°32' W 094°54'42 3.3
2018-Feb-17 08:14N 28°57' W 095°20'0 0.0
2018-Feb-17 02:50N 28°57' W 095°20'0 0.0
2018-Feb-17 02:28N 28°57' W 095°20'0 0.0
2018-Feb-17 01:59N 28°57' W 095°20'0 0.0
2018-Feb-17 01:30N 28°57' W 095°20'0 0.0
2018-Feb-17 01:00N 28°57' W 095°20'0 0.1
2018-Feb-17 00:30N 28°57' W 095°20'2 1.4
2018-Feb-16 23:12N 28°57' W 095°18'34 2.6
2018-Feb-16 10:04N 29°21' W 094°49'0 0.0
2018-Feb-16 10:00N 29°21' W 094°49'0 0.0
2018-Feb-16 09:16N 29°21' W 094°49'0 0.0
2018-Feb-16 09:00N 29°21' W 094°49'0 0.0
2018-Feb-16 08:29N 29°21' W 094°49'0 0.0
2018-Feb-16 08:00N 29°21' W 094°49'0 0.0
2018-Feb-16 07:29N 29°21' W 094°49'0 0.0
2018-Feb-16 07:00N 29°21' W 094°49'0 0.0
2018-Feb-16 06:26N 29°21' W 094°49'0 0.0
2018-Feb-16 06:00N 29°21' W 094°49'0 0.0
2018-Feb-16 05:30N 29°21' W 094°49'0 0.0
2018-Feb-16 04:55N 29°21' W 094°49'0 0.0
2018-Feb-16 04:27N 29°21' W 094°49'0 0.0
2018-Feb-16 03:57N 29°21' W 094°49'0 0.0
2018-Feb-16 03:25N 29°21' W 094°49'0 0.0
2018-Feb-16 02:59N 29°21' W 094°49'0 0.0
2018-Feb-16 02:30N 29°21' W 094°49'0 0.0
2018-Feb-16 01:56N 29°21' W 094°49'0 0.0
2018-Feb-16 01:28N 29°21' W 094°49'0 0.0
2018-Feb-16 00:59N 29°21' W 094°49'0 0.0
2018-Feb-16 00:08N 29°21' W 094°49'0 0.5
2018-Feb-15 23:46N 29°21' W 094°49'3 6.2
2018-Feb-15 23:19N 29°23' W 094°46'2 5.7
2018-Feb-15 22:59N 29°24' W 094°45'1 0.9
2018-Feb-15 22:11N 29°25' W 094°44'2 7.7
2018-Feb-15 21:56N 29°23' W 094°46'4 7.4
2018-Feb-15 21:25N 29°21' W 094°49'3 7.0
2018-Feb-15 20:58N 29°19' W 094°52'23 6.6
2018-Feb-15 17:24N 29°04' W 095°13'3 5.9
2018-Feb-15 16:56N 29°01' W 095°14'3 6.1
2018-Feb-15 16:30N 28°59' W 095°16'4 0.5
2018-Feb-15 07:16N 28°57' W 095°20'0 0.1
2018-Feb-15 06:49N 28°57' W 095°20'0 0.0
2018-Feb-15 03:35N 28°57' W 095°20'  
Track history (hours):
 
Tides and Currents Weather Stations Pressure Air Temp Water Temp Dewpoint Dewpoint Depression Visibility Wind Speed Wind Dir Waves Ship Positions

K K

Owner: Lafayette Workboat Rentals LLC., Broussard, LA. More information available from US FCC via Universal Licensing System and Coast Guard Vessel Documentation Center.

Last reported at 2018-Feb-25 03:16 UTC. Time now 2018-Feb-25 15:21 UTC.
Position N 29°29' W 094°51'.

Length 16 m; draft 6 m.

Type: Ship (hazmat cat D). MMSI: 367404620.

Date/timePositionNaut miles runAvg speedWind from/ knotsBaromVisibWave heightAir tempDewpointWater temp
2018-Feb-25 03:16N 29°29' W 094°51'2 7.0
2018-Feb-25 03:00N 29°30' W 094°52'3 6.8
2018-Feb-25 02:30N 29°33' W 094°55'3 7.1
2018-Feb-25 02:00N 29°36' W 094°57'4 7.3
2018-Feb-25 01:30N 29°39' W 094°58'3 6.2
2018-Feb-25 01:00N 29°42' W 095°00'3 5.9
2018-Feb-25 00:30N 29°44' W 095°03'3 5.4
2018-Feb-25 00:00N 29°45' W 095°05'3 6.5
2018-Feb-24 23:28N 29°44' W 095°09'4 5.6
2018-Feb-24 22:49N 29°44' W 095°13'11 1.2
2018-Feb-24 14:03N 29°43' W 095°01'0 6.9
2018-Feb-24 14:00N 29°43' W 095°01'3 6.3
2018-Feb-24 13:30N 29°40' W 094°59'4 7.1
2018-Feb-24 13:00N 29°37' W 094°57'4 7.4
2018-Feb-24 12:30N 29°34' W 094°55'4 7.0
2018-Feb-24 12:00N 29°31' W 094°53'  
2018-Feb-20 14:17N 29°44' W 095°02'2 6.7
2018-Feb-20 14:00N 29°42' W 095°01'1 2.7
2018-Feb-20 13:30N 29°41' W 095°00'0 0.1
2018-Feb-20 12:59N 29°41' W 095°00'0 0.0
2018-Feb-20 11:40N 29°41' W 095°00'0 1.0
2018-Feb-20 11:28N 29°41' W 095°00'3 3.6
2018-Feb-20 10:40N 29°39' W 094°58'3 7.4
2018-Feb-20 10:18N 29°36' W 094°57'2 7.4
2018-Feb-20 10:00N 29°34' W 094°56'4 6.9
2018-Feb-20 09:29N 29°31' W 094°53'6 6.8
2018-Feb-20 08:33N 29°26' W 094°50'1 6.9
2018-Feb-20 08:24N 29°25' W 094°49'4 6.6
2018-Feb-20 07:51N 29°21' W 094°49'3 6.8
2018-Feb-20 07:29N 29°20' W 094°51'4 7.0
2018-Feb-20 06:59N 29°17' W 094°54'4 6.8
2018-Feb-20 06:21N 29°17' W 094°59'13 1.3
2018-Feb-19 20:25N 29°08' W 095°10'2 5.6
2018-Feb-19 20:00N 29°10' W 095°08'10 5.2
2018-Feb-19 18:08N 29°16' W 094°59'1 4.9
2018-Feb-19 17:55N 29°17' W 094°58'4 4.9
2018-Feb-19 17:08N 29°17' W 094°54'1 5.0
2018-Feb-19 16:58N 29°18' W 094°53'2 5.2
2018-Feb-19 16:30N 29°19' W 094°51'3 5.1
2018-Feb-19 16:00N 29°21' W 094°49'10 5.4
2018-Feb-19 14:14N 29°30' W 094°52'1 5.8
2018-Feb-19 14:00N 29°31' W 094°53'3 6.1
2018-Feb-19 13:30N 29°34' W 094°55'3 6.3
2018-Feb-19 13:00N 29°36' W 094°57'3 6.1
2018-Feb-19 12:30N 29°39' W 094°58'3 6.0
2018-Feb-19 12:00N 29°42' W 095°00'3 5.2
2018-Feb-19 11:30N 29°44' W 095°02'3 5.6
2018-Feb-19 10:55N 29°46' W 095°05'3 6.3
2018-Feb-19 10:30N 29°44' W 095°08'1 1.1
2018-Feb-19 09:59N 29°44' W 095°08'0 0.0
2018-Feb-19 09:28N 29°44' W 095°08'0 0.0
2018-Feb-19 08:58N 29°44' W 095°08'0 0.0
2018-Feb-19 08:30N 29°44' W 095°08'0 0.0
2018-Feb-19 08:00N 29°44' W 095°08'0 0.0
2018-Feb-19 07:30N 29°44' W 095°08'0 0.0
2018-Feb-19 07:00N 29°44' W 095°08'0 0.0
2018-Feb-19 06:29N 29°44' W 095°08'0 0.0
2018-Feb-19 05:59N 29°44' W 095°08'0 0.0
2018-Feb-19 05:30N 29°44' W 095°08'0 0.0
2018-Feb-19 05:00N 29°44' W 095°08'1 0.0
2018-Feb-18 00:31N 29°45' W 095°10'1 6.3
2018-Feb-18 00:23N 29°44' W 095°09'4 5.6
2018-Feb-17 23:37N 29°45' W 095°04'1 6.9
2018-Feb-17 23:29N 29°44' W 095°03'2 5.1
2018-Feb-17 23:00N 29°43' W 095°01'3 5.7
2018-Feb-17 22:30N 29°41' W 094°59'3 6.7
2018-Feb-17 22:00N 29°38' W 094°58'3 6.8
2018-Feb-17 21:30N 29°35' W 094°56'3 6.9
2018-Feb-17 21:00N 29°32' W 094°54'42 3.3
2018-Feb-17 08:14N 28°57' W 095°20'0 0.0
2018-Feb-17 02:50N 28°57' W 095°20'0 0.0
2018-Feb-17 02:28N 28°57' W 095°20'0 0.0
2018-Feb-17 01:59N 28°57' W 095°20'0 0.0
2018-Feb-17 01:30N 28°57' W 095°20'0 0.0
2018-Feb-17 01:00N 28°57' W 095°20'0 0.1
2018-Feb-17 00:30N 28°57' W 095°20'2 1.4
2018-Feb-16 23:12N 28°57' W 095°18'34 2.6
2018-Feb-16 10:04N 29°21' W 094°49'0 0.0
2018-Feb-16 10:00N 29°21' W 094°49'0 0.0
2018-Feb-16 09:16N 29°21' W 094°49'0 0.0
2018-Feb-16 09:00N 29°21' W 094°49'0 0.0
2018-Feb-16 08:29N 29°21' W 094°49'0 0.0
2018-Feb-16 08:00N 29°21' W 094°49'0 0.0
2018-Feb-16 07:29N 29°21' W 094°49'0 0.0
2018-Feb-16 07:00N 29°21' W 094°49'0 0.0
2018-Feb-16 06:26N 29°21' W 094°49'0 0.0
2018-Feb-16 06:00N 29°21' W 094°49'0 0.0
2018-Feb-16 05:30N 29°21' W 094°49'0 0.0
2018-Feb-16 04:55N 29°21' W 094°49'0 0.0
2018-Feb-16 04:27N 29°21' W 094°49'0 0.0
2018-Feb-16 03:57N 29°21' W 094°49'0 0.0
2018-Feb-16 03:25N 29°21' W 094°49'0 0.0
2018-Feb-16 02:59N 29°21' W 094°49'0 0.0
2018-Feb-16 02:30N 29°21' W 094°49'0 0.0
2018-Feb-16 01:56N 29°21' W 094°49'0 0.0
2018-Feb-16 01:28N 29°21' W 094°49'0 0.0
2018-Feb-16 00:59N 29°21' W 094°49'0 0.0
2018-Feb-16 00:08N 29°21' W 094°49'0 0.5
2018-Feb-15 23:46N 29°21' W 094°49'3 6.2
2018-Feb-15 23:19N 29°23' W 094°46'2 5.7
2018-Feb-15 22:59N 29°24' W 094°45'1 0.9
2018-Feb-15 22:11N 29°25' W 094°44'2 7.7
2018-Feb-15 21:56N 29°23' W 094°46'4 7.4
2018-Feb-15 21:25N 29°21' W 094°49'3 7.0
2018-Feb-15 20:58N 29°19' W 094°52'23 6.6
2018-Feb-15 17:24N 29°04' W 095°13'3 5.9
2018-Feb-15 16:56N 29°01' W 095°14'3 6.1
2018-Feb-15 16:30N 28°59' W 095°16'4 0.5
2018-Feb-15 07:16N 28°57' W 095°20'0 0.1
2018-Feb-15 06:49N 28°57' W 095°20'0 0.0
2018-Feb-15 03:35N 28°57' W 095°20'  

Dump ship's entire track history